Time;durP1;ratioP1;P1;durP2;ratioP2;P2;SDS_P1;SDS_P2;PMS_P1;PMS_P2;Temp;Humidity;BMP_temperature;BMP_pressure;BME280_temperature;BME280_humidity;BME280_pressure;Samples;Min_cycle;Max_cycle;Signal;HPM_P1;HPM_P2
2023/11/20 00:02:20;;;;;;;0.70;0.70;;;9.70;99.90;;;;;;4991742;28;20114;-76
2023/11/20 00:04:46;;;;;;;1.23;0.98;;;9.60;99.90;;;;;;4988164;28;20037;-76
2023/11/20 00:07:12;;;;;;;0.82;0.70;;;9.60;99.90;;;;;;4973115;28;20031;-76
2023/11/20 00:09:38;;;;;;;1.05;0.70;;;9.60;99.90;;;;;;4983208;28;20029;-76
2023/11/20 00:12:05;;;;;;;1.02;0.70;;;9.60;99.90;;;;;;4989565;28;20054;-76
2023/11/20 00:14:30;;;;;;;0.60;0.60;;;9.60;99.90;;;;;;4996481;28;20045;-75
2023/11/20 00:16:56;;;;;;;0.80;0.80;;;9.60;99.90;;;;;;4986386;28;20430;-76
2023/11/20 00:19:22;;;;;;;1.33;0.90;;;9.60;99.90;;;;;;4987653;28;20019;-76
2023/11/20 00:21:48;;;;;;;1.02;1.02;;;9.60;99.90;;;;;;4996024;28;20026;-76
2023/11/20 00:24:14;;;;;;;0.80;0.80;;;9.60;99.90;;;;;;4992659;28;20042;-76
2023/11/20 00:26:39;;;;;;;1.38;1.08;;;9.60;99.90;;;;;;4986977;28;20031;-76
2023/11/20 00:29:05;;;;;;;0.90;0.90;;;9.60;99.90;;;;;;4987395;28;20019;-76
2023/11/20 00:31:31;;;;;;;0.80;0.80;;;9.60;99.90;;;;;;4990244;28;20039;-76
2023/11/20 00:33:58;;;;;;;0.80;0.80;;;9.50;99.90;;;;;;4984308;28;20041;-76
2023/11/20 00:36:24;;;;;;;0.85;0.85;;;9.50;99.90;;;;;;4968892;28;20248;-76
2023/11/20 00:38:50;;;;;;;0.90;0.90;;;9.50;99.90;;;;;;4973477;28;20396;-76
2023/11/20 00:41:16;;;;;;;0.80;0.80;;;9.50;99.90;;;;;;4985188;28;20424;-76
2023/11/20 00:43:41;;;;;;;0.80;0.80;;;9.50;99.90;;;;;;4984698;28;20069;-76
2023/11/20 00:46:28;;;;;;;1.00;0.90;;;9.50;99.90;;;;;;4974145;28;20026;-77
2023/11/20 00:49:07;;;;;;;1.08;0.80;;;9.50;99.90;;;;;;4951634;28;20030;-77
2023/11/20 00:51:33;;;;;;;0.88;0.70;;;9.50;99.90;;;;;;4950087;28;20054;-77
2023/11/20 00:53:59;;;;;;;0.70;0.70;;;9.40;99.90;;;;;;4981322;28;20640;-76
2023/11/20 00:56:26;;;;;;;0.90;0.90;;;9.40;99.90;;;;;;4978424;28;20516;-76
2023/11/20 00:58:52;;;;;;;0.85;0.77;;;9.40;99.90;;;;;;4982673;28;20470;-75
2023/11/20 01:01:17;;;;;;;1.02;1.02;;;9.40;99.90;;;;;;4975046;28;20042;-75
2023/11/20 01:03:43;;;;;;;1.00;0.90;;;9.40;99.90;;;;;;4987636;28;20030;-75
2023/11/20 01:06:09;;;;;;;2.42;0.98;;;9.40;99.90;;;;;;4982966;28;20419;-75
2023/11/20 01:08:35;;;;;;;1.00;0.90;;;9.40;99.90;;;;;;4972637;28;20031;-75
2023/11/20 01:11:06;;;;;;;1.83;0.98;;;9.40;99.90;;;;;;4979450;28;20039;-75
2023/11/20 01:13:31;;;;;;;0.80;0.80;;;9.40;99.90;;;;;;4984279;28;20039;-76
2023/11/20 01:15:57;;;;;;;0.90;0.90;;;9.50;99.90;;;;;;4965206;28;20062;-76
2023/11/20 01:18:23;;;;;;;0.60;0.60;;;9.40;99.90;;;;;;4981747;28;20069;-75
2023/11/20 01:20:49;;;;;;;0.80;0.80;;;9.40;99.90;;;;;;4981819;28;20035;-75
2023/11/20 01:23:15;;;;;;;1.85;0.80;;;9.40;99.90;;;;;;4985328;28;20022;-75
2023/11/20 01:25:40;;;;;;;0.80;0.80;;;9.40;99.90;;;;;;4983800;28;20031;-76
2023/11/20 01:28:06;;;;;;;0.73;0.73;;;9.50;99.90;;;;;;4981078;28;20197;-75
2023/11/20 01:30:32;;;;;;;0.80;0.80;;;9.40;99.90;;;;;;4979810;28;20041;-75
2023/11/20 01:32:58;;;;;;;1.98;0.70;;;9.40;99.90;;;;;;4966829;28;20051;-76
2023/11/20 01:35:23;;;;;;;0.88;0.80;;;9.40;99.90;;;;;;4963943;28;20041;-76
2023/11/20 01:37:49;;;;;;;0.80;0.80;;;9.40;99.90;;;;;;4967159;28;20058;-75
2023/11/20 01:40:16;;;;;;;1.08;1.00;;;9.40;99.90;;;;;;4969892;28;20058;-76
2023/11/20 01:42:42;;;;;;;0.85;0.82;;;9.50;99.90;;;;;;4984770;28;20061;-75
2023/11/20 01:45:08;;;;;;;0.80;0.77;;;9.50;99.90;;;;;;4967732;28;20035;-75
2023/11/20 01:47:38;;;;;;;0.80;0.80;;;9.40;99.90;;;;;;4984221;28;20037;-75
2023/11/20 01:50:10;;;;;;;1.48;0.63;;;9.40;99.90;;;;;;4985075;28;20085;-76
2023/11/20 01:52:39;;;;;;;1.33;0.95;;;9.40;99.90;;;;;;4980674;28;20114;-76
2023/11/20 01:55:07;;;;;;;1.02;0.98;;;9.30;99.90;;;;;;4981241;28;20026;-76
2023/11/20 01:57:34;;;;;;;1.88;1.70;;;9.40;99.90;;;;;;4978818;28;20038;-75
2023/11/20 02:00:00;;;;;;;8.65;1.08;;;9.40;99.90;;;;;;4985353;28;20030;-76
2023/11/20 02:02:26;;;;;;;0.90;0.90;;;9.40;99.90;;;;;;4981399;28;20077;-75
2023/11/20 02:04:57;;;;;;;1.83;0.93;;;9.30;99.90;;;;;;4969074;28;20035;-75
2023/11/20 02:07:24;;;;;;;1.00;1.00;;;9.30;99.90;;;;;;4981919;28;20051;-76
2023/11/20 02:09:49;;;;;;;3.97;1.00;;;9.30;99.90;;;;;;4985364;28;20630;-76
2023/11/20 02:12:15;;;;;;;1.42;0.80;;;9.30;99.90;;;;;;4984335;28;20054;-76
2023/11/20 02:14:40;;;;;;;1.15;0.68;;;9.20;99.90;;;;;;4983046;28;20050;-76
2023/11/20 02:17:06;;;;;;;1.05;0.85;;;9.20;99.90;;;;;;4982365;28;20030;-75
2023/11/20 02:19:32;;;;;;;0.80;0.80;;;9.10;99.90;;;;;;4978306;28;20027;-76
2023/11/20 02:21:57;;;;;;;0.70;0.70;;;9.10;99.90;;;;;;4968909;28;20027;-75
2023/11/20 02:24:25;;;;;;;1.33;0.73;;;9.00;99.90;;;;;;4961523;28;20127;-75
2023/11/20 02:27:07;;;;;;;1.00;0.90;;;9.00;99.90;;;;;;4981429;28;20034;-75
2023/11/20 02:29:32;;;;;;;0.77;0.77;;;9.00;99.90;;;;;;4978004;28;20154;-76
2023/11/20 02:31:58;;;;;;;1.05;0.90;;;9.00;99.90;;;;;;4967319;28;20112;-76
2023/11/20 02:34:24;;;;;;;0.88;0.77;;;8.90;99.90;;;;;;4984333;28;20035;-75
2023/11/20 02:36:50;;;;;;;1.15;0.80;;;8.90;99.90;;;;;;4983107;28;20045;-75
2023/11/20 02:39:16;;;;;;;1.10;0.90;;;8.80;99.90;;;;;;4988209;28;20023;-75
2023/11/20 02:41:43;;;;;;;0.80;0.77;;;8.80;99.90;;;;;;4983145;28;20022;-75
2023/11/20 02:44:08;;;;;;;1.80;0.98;;;8.80;99.90;;;;;;4980437;28;20065;-75
2023/11/20 02:46:34;;;;;;;1.80;0.98;;;8.70;99.90;;;;;;4964074;28;20058;-75
2023/11/20 02:49:00;;;;;;;0.80;0.80;;;8.70;99.90;;;;;;4984855;28;20035;-75
2023/11/20 02:51:27;;;;;;;2.20;1.25;;;8.60;99.90;;;;;;4982452;28;20471;-75
2023/11/20 02:53:53;;;;;;;0.88;0.88;;;8.60;99.90;;;;;;4963576;28;20031;-75
2023/11/20 02:56:19;;;;;;;1.63;1.38;;;8.50;99.90;;;;;;4987290;28;20436;-75
2023/11/20 02:58:45;;;;;;;2.88;0.95;;;8.50;99.90;;;;;;4970933;28;20038;-75
2023/11/20 03:01:11;;;;;;;0.85;0.85;;;8.60;99.90;;;;;;4983057;28;20031;-76
2023/11/20 03:03:36;;;;;;;2.72;1.15;;;8.50;99.90;;;;;;4968602;28;20113;-75
2023/11/20 03:06:02;;;;;;;1.08;0.93;;;8.50;99.90;;;;;;4968947;28;20102;-76
2023/11/20 03:08:28;;;;;;;1.10;1.00;;;8.50;99.90;;;;;;4999526;28;20041;-74
2023/11/20 03:10:53;;;;;;;17.02;10.48;;;8.50;99.90;;;;;;4998887;28;20031;-76
2023/11/20 03:13:23;;;;;;;30.75;15.18;;;8.40;99.90;;;;;;4997968;28;20058;-76
2023/11/20 03:15:50;;;;;;;11.85;7.75;;;8.30;99.90;;;;;;5000926;28;20027;-77
2023/11/20 03:18:16;;;;;;;10.07;7.65;;;8.40;99.90;;;;;;4989346;28;20050;-75
2023/11/20 03:20:42;;;;;;;14.05;12.95;;;8.40;99.90;;;;;;4982383;28;20023;-77
2023/11/20 03:23:07;;;;;;;8.65;7.80;;;8.30;99.90;;;;;;4968986;28;20038;-75
2023/11/20 03:25:33;;;;;;;6.82;6.25;;;8.20;99.90;;;;;;4990570;28;20034;-75
2023/11/20 03:27:58;;;;;;;5.32;4.93;;;8.20;99.90;;;;;;4979586;28;20046;-75
2023/11/20 03:30:24;;;;;;;3.65;3.45;;;8.10;99.90;;;;;;4963135;28;20062;-74
2023/11/20 03:32:50;;;;;;;3.42;3.13;;;8.10;99.90;;;;;;4976298;28;20058;-75
2023/11/20 03:35:15;;;;;;;2.58;2.38;;;8.00;99.90;;;;;;4979414;28;20038;-76
2023/11/20 03:37:42;;;;;;;2.67;1.60;;;8.00;99.90;;;;;;4968661;28;20077;-75
2023/11/20 03:40:08;;;;;;;1.45;1.30;;;8.00;99.90;;;;;;4980682;28;20061;-75
2023/11/20 03:42:34;;;;;;;3.20;1.23;;;8.00;99.90;;;;;;4963069;28;20034;-74
2023/11/20 03:45:00;;;;;;;2.20;1.38;;;8.00;99.90;;;;;;4981063;28;20027;-74
2023/11/20 03:47:26;;;;;;;1.35;1.23;;;8.00;99.90;;;;;;4983848;28;20026;-74
2023/11/20 03:49:52;;;;;;;1.30;1.20;;;8.00;99.90;;;;;;4978740;28;20034;-75
2023/11/20 03:52:18;;;;;;;1.05;1.02;;;8.00;99.90;;;;;;4980635;28;20113;-75
2023/11/20 03:54:43;;;;;;;1.35;1.25;;;8.00;99.90;;;;;;4974808;28;20022;-75
2023/11/20 03:57:09;;;;;;;1.50;1.20;;;8.00;99.90;;;;;;4978638;28;20022;-74
2023/11/20 03:59:35;;;;;;;1.83;1.73;;;7.90;99.90;;;;;;4961035;28;20055;-76
2023/11/20 04:02:01;;;;;;;1.30;1.20;;;8.00;99.90;;;;;;4961867;28;20113;-75
2023/11/20 04:04:26;;;;;;;1.35;1.05;;;7.90;99.90;;;;;;4984968;28;20030;-75
2023/11/20 04:06:52;;;;;;;1.30;1.17;;;7.80;99.90;;;;;;4957237;28;20035;-75
2023/11/20 04:09:19;;;;;;;1.10;1.10;;;7.80;99.90;;;;;;4973236;28;20118;-75
2023/11/20 04:11:44;;;;;;;1.00;1.00;;;7.80;99.90;;;;;;4976865;28;20026;-75
2023/11/20 04:14:10;;;;;;;1.10;1.10;;;7.80;99.90;;;;;;4977728;28;20047;-75
2023/11/20 04:16:36;;;;;;;1.52;1.10;;;7.80;99.90;;;;;;4981422;28;20030;-76
2023/11/20 04:19:03;;;;;;;1.15;1.10;;;7.80;99.90;;;;;;4982493;28;20030;-76
2023/11/20 04:21:30;;;;;;;1.00;1.00;;;7.80;99.90;;;;;;4979475;28;20029;-75
2023/11/20 04:23:56;;;;;;;1.65;1.00;;;8.00;99.90;;;;;;4962159;28;20038;-75
2023/11/20 04:26:21;;;;;;;1.27;1.02;;;8.00;99.90;;;;;;4978714;28;20035;-74
2023/11/20 04:28:47;;;;;;;1.30;1.20;;;8.10;99.90;;;;;;4975316;28;20035;-75
2023/11/20 04:31:13;;;;;;;1.95;1.55;;;8.10;99.90;;;;;;4980421;28;20035;-75
2023/11/20 04:33:42;;;;;;;1.40;1.10;;;8.20;99.90;;;;;;4982416;28;20094;-75
2023/11/20 04:36:09;;;;;;;1.90;1.08;;;8.20;99.90;;;;;;4978405;28;20028;-75
2023/11/20 04:38:37;;;;;;;1.60;1.20;;;8.20;99.90;;;;;;4958492;28;20019;-75
2023/11/20 04:41:05;;;;;;;3.00;1.65;;;8.30;99.90;;;;;;4980029;28;20054;-75
2023/11/20 04:43:31;;;;;;;1.35;1.25;;;8.30;99.90;;;;;;4978710;28;20050;-75
2023/11/20 04:45:56;;;;;;;2.28;1.08;;;8.30;99.90;;;;;;4976871;28;20031;-75
2023/11/20 04:48:22;;;;;;;4.95;1.30;;;8.30;99.90;;;;;;4981210;28;20034;-75
2023/11/20 04:50:48;;;;;;;2.30;1.00;;;8.30;99.90;;;;;;4979626;28;20042;-75
2023/11/20 04:53:13;;;;;;;3.40;1.15;;;8.30;99.90;;;;;;4975629;28;20046;-75
2023/11/20 04:55:39;;;;;;;2.85;1.25;;;8.30;99.90;;;;;;4982020;28;20041;-75
2023/11/20 04:58:05;;;;;;;1.52;1.20;;;8.40;99.90;;;;;;4980255;28;20125;-75
2023/11/20 05:00:31;;;;;;;1.17;0.90;;;8.40;99.90;;;;;;4982092;28;20030;-75
2023/11/20 05:02:57;;;;;;;1.45;1.15;;;8.40;99.90;;;;;;4976349;28;20038;-75
2023/11/20 05:05:22;;;;;;;6.05;1.02;;;8.50;99.90;;;;;;4980667;28;20058;-75
2023/11/20 05:07:49;;;;;;;3.42;0.82;;;8.60;99.90;;;;;;4978121;28;21263;-75
2023/11/20 05:10:15;;;;;;;0.80;0.70;;;8.60;99.90;;;;;;4965469;28;20039;-75
2023/11/20 05:12:41;;;;;;;2.42;1.00;;;8.60;99.90;;;;;;4984277;28;20035;-75
2023/11/20 05:15:08;;;;;;;0.82;0.80;;;8.70;99.90;;;;;;4953885;28;20035;-75
2023/11/20 05:17:33;;;;;;;1.10;1.00;;;8.70;99.90;;;;;;4958256;28;20058;-75
2023/11/20 05:19:59;;;;;;;1.65;0.93;;;8.60;99.90;;;;;;4976999;28;20062;-74
2023/11/20 05:22:26;;;;;;;1.70;0.93;;;8.60;99.90;;;;;;4975886;28;20070;-75
2023/11/20 05:24:52;;;;;;;3.00;1.10;;;8.50;99.90;;;;;;4981914;28;20031;-75
2023/11/20 05:27:19;;;;;;;2.53;1.10;;;8.50;99.90;;;;;;4976521;28;20030;-74
2023/11/20 05:29:46;;;;;;;1.13;0.88;;;8.40;99.90;;;;;;4981817;28;20026;-75
2023/11/20 05:32:12;;;;;;;2.38;1.20;;;8.40;99.90;;;;;;4974603;28;20030;-74
2023/11/20 05:34:38;;;;;;;1.85;1.20;;;8.40;99.90;;;;;;4980179;28;20097;-74
2023/11/20 05:37:04;;;;;;;2.05;1.00;;;8.40;99.90;;;;;;4974714;28;20527;-75
2023/11/20 05:39:31;;;;;;;2.35;1.08;;;8.40;99.90;;;;;;4977311;28;20114;-75
2023/11/20 05:41:56;;;;;;;1.45;0.90;;;8.40;99.90;;;;;;4974878;28;20045;-74
2023/11/20 05:44:22;;;;;;;1.40;0.80;;;8.40;99.90;;;;;;4974076;28;20034;-75
2023/11/20 05:46:48;;;;;;;1.10;1.00;;;8.40;99.90;;;;;;4977599;28;20140;-75
2023/11/20 05:49:14;;;;;;;1.92;1.10;;;8.30;99.90;;;;;;4981793;28;20428;-75
2023/11/20 05:51:40;;;;;;;2.00;1.42;;;8.30;99.90;;;;;;4962140;28;20034;-74
2023/11/20 05:54:08;;;;;;;1.02;0.90;;;8.30;99.90;;;;;;4985290;28;20030;-75
2023/11/20 05:56:36;;;;;;;1.25;1.15;;;8.20;99.90;;;;;;4965288;28;20257;-75
2023/11/20 05:59:01;;;;;;;1.48;1.08;;;8.20;99.90;;;;;;4975392;28;20039;-74
2023/11/20 06:01:39;;;;;;;3.50;1.20;;;8.20;99.90;;;;;;4983906;28;20034;-75
2023/11/20 06:04:08;;;;;;;1.50;1.10;;;8.10;99.90;;;;;;4982887;28;20029;-75
2023/11/20 06:06:37;;;;;;;1.48;1.33;;;8.00;99.90;;;;;;4983963;28;20258;-75
2023/11/20 06:09:12;;;;;;;3.28;1.95;;;8.00;99.90;;;;;;4962781;28;20027;-73
2023/11/20 06:11:38;;;;;;;5.50;2.15;;;8.00;99.90;;;;;;4962876;28;20035;-72
2023/11/20 06:17:33;;;;;;;4.68;3.45;;;7.90;99.90;;;;;;4890759;29;20020;-73
2023/11/20 06:19:59;;;;;;;8.50;4.40;;;7.90;99.90;;;;;;4910644;29;20033;-75
2023/11/20 06:22:25;;;;;;;9.35;5.10;;;7.90;99.90;;;;;;4976108;28;20045;-75
2023/11/20 06:24:53;;;;;;;6.38;3.17;;;7.90;99.90;;;;;;4983793;28;20071;-75
2023/11/20 06:27:19;;;;;;;4.70;3.33;;;7.90;99.90;;;;;;4986272;28;20031;-75
2023/11/20 06:29:46;;;;;;;6.65;3.22;;;7.90;99.90;;;;;;4987719;28;20023;-76
2023/11/20 06:32:11;;;;;;;6.03;2.72;;;7.80;99.90;;;;;;4985143;28;20035;-76
2023/11/20 06:34:37;;;;;;;7.93;2.35;;;7.80;99.90;;;;;;4964896;28;20046;-75
2023/11/20 06:37:03;;;;;;;2.10;1.70;;;7.80;99.90;;;;;;4985488;28;20035;-75
2023/11/20 06:39:29;;;;;;;4.75;2.35;;;7.80;99.90;;;;;;4965395;28;20117;-75
2023/11/20 06:41:54;;;;;;;5.00;3.22;;;7.80;99.90;;;;;;4971078;28;20111;-75
2023/11/20 06:44:20;;;;;;;5.30;4.78;;;7.70;99.90;;;;;;4964198;28;20042;-75
2023/11/20 06:46:46;;;;;;;3.28;2.97;;;7.80;99.90;;;;;;4984499;28;20038;-76
2023/11/20 06:49:11;;;;;;;2.67;2.33;;;7.80;99.90;;;;;;4971659;28;20031;-75
2023/11/20 06:51:37;;;;;;;2.17;2.00;;;7.70;99.90;;;;;;4973627;28;20504;-75
2023/11/20 06:54:04;;;;;;;3.75;2.13;;;7.70;99.90;;;;;;4972115;28;20405;-74
2023/11/20 06:56:31;;;;;;;1.80;1.70;;;7.70;99.90;;;;;;4966457;28;20023;-75
2023/11/20 06:58:57;;;;;;;1.85;1.55;;;7.70;99.90;;;;;;4970719;28;20047;-74
2023/11/20 07:01:23;;;;;;;2.13;1.90;;;7.70;99.90;;;;;;4965088;28;20084;-74
2023/11/20 07:03:49;;;;;;;2.55;1.90;;;7.70;99.90;;;;;;4968866;28;20038;-74
2023/11/20 07:06:15;;;;;;;1.95;1.48;;;7.70;99.90;;;;;;4964882;28;20026;-75
2023/11/20 07:08:42;;;;;;;2.15;1.55;;;7.60;99.90;;;;;;4974435;28;20037;-75
2023/11/20 07:11:08;;;;;;;5.63;1.48;;;7.60;99.90;;;;;;4955159;28;20038;-76
2023/11/20 07:13:34;;;;;;;2.35;1.33;;;7.70;99.90;;;;;;4968058;28;20102;-76
2023/11/20 07:16:00;;;;;;;1.10;1.08;;;7.90;99.90;;;;;;4963945;28;20035;-75
2023/11/20 07:18:26;;;;;;;1.25;1.15;;;8.00;99.90;;;;;;4973285;28;20473;-74
2023/11/20 07:20:53;;;;;;;4.53;1.33;;;8.20;99.90;;;;;;4969825;28;20030;-75
2023/11/20 07:23:19;;;;;;;3.80;1.45;;;8.30;99.90;;;;;;4967684;28;20061;-76
2023/11/20 07:25:45;;;;;;;0.93;0.85;;;8.40;99.90;;;;;;4973894;28;20569;-75
2023/11/20 07:28:17;;;;;;;1.63;1.10;;;8.40;99.90;;;;;;4968020;28;20051;-75
2023/11/20 07:30:43;;;;;;;2.15;1.10;;;8.40;99.90;;;;;;4962715;28;20027;-75
2023/11/20 07:33:09;;;;;;;1.63;0.98;;;8.40;99.90;;;;;;4971484;28;20026;-76
2023/11/20 07:35:36;;;;;;;2.25;1.35;;;8.50;99.90;;;;;;4958879;28;20019;-76
2023/11/20 07:38:02;;;;;;;1.40;1.27;;;8.50;99.90;;;;;;4972195;28;20026;-75
2023/11/20 07:40:28;;;;;;;4.80;1.17;;;8.50;99.90;;;;;;4976710;28;20070;-76
2023/11/20 07:42:54;;;;;;;2.08;0.90;;;8.60;99.90;;;;;;4974969;28;20027;-76
2023/11/20 07:45:20;;;;;;;1.45;1.20;;;8.60;99.90;;;;;;4981797;28;20324;-76
2023/11/20 07:47:46;;;;;;;1.48;1.20;;;8.60;99.90;;;;;;4961235;28;20042;-74
2023/11/20 07:50:14;;;;;;;2.08;1.30;;;8.50;99.90;;;;;;4979433;28;20145;-76
2023/11/20 07:52:41;;;;;;;2.90;1.47;;;8.50;99.90;;;;;;4978189;28;20034;-74
2023/11/20 07:55:08;;;;;;;3.57;1.90;;;8.50;99.90;;;;;;4982761;28;20643;-75
2023/11/20 07:57:34;;;;;;;3.13;1.80;;;8.40;99.90;;;;;;4976150;28;20031;-75
2023/11/20 08:00:00;;;;;;;4.20;1.95;;;8.40;99.90;;;;;;4982477;28;20163;-75
2023/11/20 08:02:26;;;;;;;3.63;2.05;;;8.40;99.90;;;;;;4966902;28;20054;-76
2023/11/20 08:04:52;;;;;;;5.00;1.85;;;8.40;99.90;;;;;;4984572;28;20037;-75
2023/11/20 08:07:18;;;;;;;5.30;1.50;;;8.40;99.90;;;;;;4965992;28;20019;-74
2023/11/20 08:09:44;;;;;;;3.72;1.20;;;8.40;99.90;;;;;;4985248;28;20054;-73
2023/11/20 08:12:10;;;;;;;2.17;1.08;;;8.50;99.90;;;;;;4985450;28;20023;-78
2023/11/20 08:14:36;;;;;;;2.38;1.00;;;8.70;99.90;;;;;;4986818;28;20539;-79
2023/11/20 08:17:03;;;;;;;4.22;1.35;;;8.80;99.90;;;;;;4975424;28;20291;-75
2023/11/20 08:19:29;;;;;;;1.30;1.02;;;8.90;99.90;;;;;;4987727;28;20030;-74
2023/11/20 08:21:54;;;;;;;1.63;0.95;;;9.00;99.90;;;;;;4998506;28;20049;-75
2023/11/20 08:24:20;;;;;;;1.70;1.20;;;9.10;99.90;;;;;;4989870;28;20027;-75
2023/11/20 08:26:47;;;;;;;1.15;0.77;;;9.20;99.90;;;;;;4991115;28;20035;-74
2023/11/20 08:29:16;;;;;;;2.20;0.95;;;9.30;99.90;;;;;;4988843;28;20034;-74
2023/11/20 08:31:43;;;;;;;1.67;1.58;;;9.30;99.90;;;;;;4991998;28;20042;-75
2023/11/20 08:34:09;;;;;;;4.20;1.30;;;9.40;99.90;;;;;;4989922;28;20039;-74
2023/11/20 08:36:35;;;;;;;3.65;1.10;;;9.40;99.90;;;;;;4987775;28;20038;-74
2023/11/20 08:39:02;;;;;;;3.47;1.02;;;9.40;99.90;;;;;;4982484;28;20022;-75
2023/11/20 08:41:29;;;;;;;5.50;1.58;;;9.50;99.90;;;;;;4973444;28;20026;-76
2023/11/20 08:43:55;;;;;;;1.02;1.02;;;9.50;99.90;;;;;;4996856;28;20026;-74
2023/11/20 08:46:21;;;;;;;3.08;1.00;;;9.50;99.90;;;;;;4993271;28;20049;-75
2023/11/20 08:48:46;;;;;;;3.78;1.38;;;9.50;99.90;;;;;;4963490;28;20031;-74
2023/11/20 08:51:12;;;;;;;2.00;0.90;;;9.60;99.90;;;;;;4977283;28;20027;-74
2023/11/20 08:53:38;;;;;;;1.60;0.90;;;9.70;99.90;;;;;;4976494;28;20031;-75
2023/11/20 08:56:04;;;;;;;4.72;1.40;;;9.70;99.90;;;;;;4977401;28;20023;-75
2023/11/20 08:58:31;;;;;;;2.13;0.90;;;9.80;99.90;;;;;;4952113;28;20065;-74
2023/11/20 09:00:56;;;;;;;3.70;1.27;;;9.90;99.90;;;;;;4970493;28;20065;-76
2023/11/20 09:03:22;;;;;;;3.78;1.25;;;9.90;99.90;;;;;;4970118;28;20497;-74
2023/11/20 09:05:51;;;;;;;5.00;1.88;;;10.00;99.90;;;;;;4969085;28;20467;-74
2023/11/20 09:08:16;;;;;;;4.05;1.10;;;10.00;99.90;;;;;;4970616;28;20046;-74
2023/11/20 09:10:44;;;;;;;3.53;1.05;;;10.00;99.90;;;;;;4957309;28;20026;-74
2023/11/20 09:13:09;;;;;;;2.33;0.82;;;10.00;99.90;;;;;;4953900;28;20096;-75
2023/11/20 09:15:36;;;;;;;1.83;0.80;;;10.00;99.90;;;;;;4972254;28;20483;-75
2023/11/20 09:18:01;;;;;;;4.20;1.10;;;10.10;99.90;;;;;;4971311;28;20015;-74
2023/11/20 09:20:27;;;;;;;2.50;1.10;;;10.00;99.90;;;;;;4972372;28;20093;-75
2023/11/20 09:22:53;;;;;;;1.88;0.93;;;10.10;99.90;;;;;;4973753;28;20041;-74
2023/11/20 09:25:19;;;;;;;0.73;0.70;;;10.10;99.90;;;;;;4973570;28;20122;-74
2023/11/20 09:27:47;;;;;;;2.17;1.05;;;10.10;99.90;;;;;;4971367;28;20122;-74
2023/11/20 09:30:14;;;;;;;2.20;0.90;;;10.10;99.90;;;;;;4971356;28;20058;-74
2023/11/20 09:32:40;;;;;;;2.38;1.52;;;10.20;99.90;;;;;;4972807;28;20038;-74
2023/11/20 09:35:08;;;;;;;4.45;1.08;;;10.20;99.90;;;;;;4965233;28;20712;-74
2023/11/20 09:37:34;;;;;;;5.13;1.03;;;10.20;99.90;;;;;;4970740;28;20515;-74
2023/11/20 09:40:04;;;;;;;1.73;1.15;;;10.20;99.90;;;;;;4969916;28;20035;-74
2023/11/20 09:42:30;;;;;;;3.20;0.93;;;10.30;99.90;;;;;;4974485;28;20261;-74
2023/11/20 09:44:59;;;;;;;5.20;1.30;;;10.30;99.90;;;;;;4969233;28;20094;-75
2023/11/20 09:47:28;;;;;;;3.00;1.20;;;10.30;99.90;;;;;;4974872;28;20027;-74
2023/11/20 09:49:56;;;;;;;1.42;1.10;;;10.30;99.90;;;;;;4976593;28;20555;-74
2023/11/20 09:52:24;;;;;;;2.22;0.90;;;10.30;99.90;;;;;;4978750;28;20031;-73
2023/11/20 09:54:52;;;;;;;1.80;1.17;;;10.30;99.90;;;;;;4974302;28;20063;-74
2023/11/20 09:57:23;;;;;;;2.75;1.25;;;10.30;99.90;;;;;;4977275;28;20494;-74
2023/11/20 09:59:49;;;;;;;1.40;1.30;;;10.40;99.90;;;;;;4975569;28;20030;-74
2023/11/20 10:02:15;;;;;;;3.63;1.10;;;10.40;99.90;;;;;;4969362;28;20065;-74
2023/11/20 10:04:41;;;;;;;2.67;0.80;;;10.40;99.90;;;;;;4973974;28;20049;-74
2023/11/20 10:07:11;;;;;;;1.00;0.90;;;10.40;99.90;;;;;;4958438;28;20030;-74
2023/11/20 10:09:40;;;;;;;3.83;1.15;;;10.40;99.90;;;;;;4970617;28;20034;-74
2023/11/20 10:12:08;;;;;;;1.52;0.90;;;10.40;99.90;;;;;;4958621;28;20030;-75
2023/11/20 10:14:35;;;;;;;4.93;1.20;;;10.40;99.90;;;;;;4955801;28;20070;-75
2023/11/20 10:17:01;;;;;;;4.20;1.52;;;10.50;99.90;;;;;;4974550;28;20555;-74
2023/11/20 10:19:27;;;;;;;2.60;1.23;;;10.50;99.90;;;;;;4973412;28;20023;-75
2023/11/20 10:21:53;;;;;;;0.88;0.80;;;10.40;99.90;;;;;;4969128;28;20031;-74
2023/11/20 10:24:19;;;;;;;2.05;0.90;;;10.40;99.90;;;;;;4968344;28;20027;-74
2023/11/20 10:26:48;;;;;;;3.33;1.13;;;10.40;99.90;;;;;;4976359;28;20082;-74
2023/11/20 10:29:15;;;;;;;2.53;0.98;;;10.40;99.90;;;;;;4978776;28;20037;-74
2023/11/20 10:31:43;;;;;;;1.95;1.25;;;10.50;99.90;;;;;;4975660;28;20039;-74
2023/11/20 10:34:09;;;;;;;4.73;0.97;;;10.60;99.90;;;;;;4972906;28;20045;-74
2023/11/20 10:36:36;;;;;;;2.15;0.82;;;10.70;99.90;;;;;;4971497;28;20015;-74
2023/11/20 10:39:03;;;;;;;5.28;1.45;;;10.80;99.90;;;;;;4970705;28;20079;-75
2023/11/20 10:41:29;;;;;;;3.00;1.05;;;10.80;99.90;;;;;;4974729;28;20035;-74
2023/11/20 10:43:55;;;;;;;1.38;0.98;;;10.80;99.90;;;;;;4971545;28;20097;-75
2023/11/20 10:46:23;;;;;;;1.35;0.93;;;10.80;99.90;;;;;;4976308;28;20057;-75
2023/11/20 10:48:49;;;;;;;3.15;0.90;;;10.80;99.90;;;;;;4958809;28;20035;-75
2023/11/20 10:51:18;;;;;;;1.20;0.90;;;10.90;99.90;;;;;;4952993;28;20531;-75
2023/11/20 10:53:53;;;;;;;1.40;1.30;;;10.90;99.90;;;;;;4980066;28;20031;-74
2023/11/20 10:56:20;;;;;;;7.20;1.38;;;11.00;99.90;;;;;;4979193;28;20046;-74
2023/11/20 10:58:50;;;;;;;2.40;1.10;;;11.10;99.90;;;;;;4975817;28;20054;-74
2023/11/20 11:01:16;;;;;;;2.88;0.90;;;11.10;99.90;;;;;;4970761;28;20043;-74
2023/11/20 11:03:43;;;;;;;2.15;0.70;;;11.10;99.90;;;;;;4978908;28;20113;-74
2023/11/20 11:06:11;;;;;;;4.40;0.80;;;11.10;99.90;;;;;;4976386;28;20106;-74
2023/11/20 11:08:37;;;;;;;2.28;1.00;;;11.20;99.90;;;;;;4959184;28;20035;-74
2023/11/20 11:11:06;;;;;;;2.47;1.23;;;11.10;99.90;;;;;;4970380;28;20498;-74
2023/11/20 11:13:33;;;;;;;2.03;0.88;;;11.10;99.90;;;;;;4977608;28;20042;-74
2023/11/20 11:16:00;;;;;;;7.72;1.30;;;11.20;99.90;;;;;;4976222;28;20563;-74
2023/11/20 11:18:30;;;;;;;3.45;1.23;;;11.10;99.90;;;;;;4978909;28;20026;-74
2023/11/20 11:21:01;;;;;;;3.60;1.10;;;11.10;99.90;;;;;;4977919;28;20034;-74
2023/11/20 11:23:28;;;;;;;3.60;1.20;;;11.10;99.90;;;;;;4977512;28;20037;-72
2023/11/20 11:26:03;;;;;;;1.27;0.95;;;11.20;99.90;;;;;;4978870;28;20037;-74
2023/11/20 11:28:29;;;;;;;1.25;0.80;;;11.20;99.90;;;;;;4974046;28;20026;-75
2023/11/20 11:30:56;;;;;;;1.65;0.98;;;11.20;99.90;;;;;;4973650;28;20145;-74
2023/11/20 11:33:47;;;;;;;0.90;0.90;;;11.10;99.90;;;;;;4977793;28;20031;-75
2023/11/20 11:36:20;;;;;;;1.33;0.80;;;11.10;99.90;;;;;;4962762;28;20113;-75
2023/11/20 11:39:18;;;;;;;3.20;0.70;;;11.10;99.90;;;;;;4976617;28;20023;-75
2023/11/20 11:41:53;;;;;;;;;;;11.10;99.90;;;;;;4971178;28;20114;-74
2023/11/20 11:44:22;;;;;;;4.35;1.20;;;11.10;99.90;;;;;;4967202;28;19953;-74
2023/11/20 11:46:55;;;;;;;2.03;0.93;;;11.00;99.90;;;;;;4968838;28;20037;-74
2023/11/20 11:49:24;;;;;;;2.88;1.10;;;11.10;99.90;;;;;;4977999;28;20034;-75
2023/11/20 11:51:52;;;;;;;2.70;1.10;;;11.00;99.90;;;;;;4973718;28;20039;-75
2023/11/20 11:54:18;;;;;;;2.80;1.00;;;11.10;99.90;;;;;;4973612;28;20089;-75
2023/11/20 11:56:56;;;;;;;5.72;0.82;;;11.10;99.90;;;;;;4975859;28;20661;-74
2023/11/20 11:59:36;;;;;;;1.35;0.63;;;11.10;99.90;;;;;;4970995;28;20062;-74
2023/11/20 12:02:02;;;;;;;2.65;0.80;;;11.30;99.90;;;;;;4971460;28;20511;-74
2023/11/20 12:04:57;;;;;;;1.85;1.02;;;11.30;99.90;;;;;;4960669;28;20034;-74
2023/11/20 12:07:43;;;;;;;3.25;0.98;;;11.30;99.90;;;;;;4973539;28;20030;-74
2023/11/20 12:10:12;;;;;;;1.90;1.23;;;11.40;99.90;;;;;;4975550;28;20141;-75
2023/11/20 12:12:55;;;;;;;2.00;0.70;;;11.50;99.90;;;;;;4974624;28;20097;-75
2023/11/20 12:15:42;;;;;;;2.20;1.00;;;11.40;99.90;;;;;;4966633;28;20043;-75
2023/11/20 12:18:16;;;;;;;3.80;0.82;;;11.30;99.90;;;;;;4955231;28;20454;-74
2023/11/20 12:21:09;;;;;;;1.55;0.93;;;11.20;99.90;;;;;;4951955;28;20059;-75
2023/11/20 12:23:38;;;;;;;4.05;0.90;;;11.30;99.90;;;;;;4968130;28;20054;-76
2023/11/20 12:26:14;;;;;;;3.00;1.00;;;11.20;99.90;;;;;;4969471;28;20432;-75
2023/11/20 12:28:41;;;;;;;1.65;0.63;;;11.20;99.90;;;;;;4976259;28;20026;-74
2023/11/20 12:31:09;;;;;;;1.73;1.25;;;11.30;99.90;;;;;;4974206;28;20045;-75
2023/11/20 12:33:39;;;;;;;3.10;1.65;;;11.30;99.90;;;;;;4964881;28;20034;-74
2023/11/20 12:36:05;;;;;;;2.47;0.93;;;11.30;99.90;;;;;;4971682;28;20038;-74
2023/11/20 12:38:36;;;;;;;1.75;0.88;;;11.20;99.90;;;;;;4953238;28;20027;-74
2023/11/20 12:41:06;;;;;;;1.73;1.00;;;10.90;99.90;;;;;;4970772;28;20054;-74
2023/11/20 12:43:33;;;;;;;3.30;1.00;;;10.80;99.90;;;;;;4955599;28;20022;-75
2023/11/20 12:46:06;;;;;;;4.28;1.00;;;10.80;99.90;;;;;;4971914;28;20486;-74
2023/11/20 12:48:32;;;;;;;8.10;1.13;;;10.60;99.90;;;;;;4958610;28;20027;-74
2023/11/20 12:50:59;;;;;;;2.22;0.95;;;10.60;99.90;;;;;;4972039;28;20095;-74
2023/11/20 12:53:25;;;;;;;7.07;1.05;;;10.50;99.90;;;;;;4954783;28;20094;-73
2023/11/20 12:55:54;;;;;;;3.50;1.08;;;10.40;99.90;;;;;;4957901;28;20051;-73
2023/11/20 12:58:21;;;;;;;2.65;0.70;;;10.40;99.90;;;;;;4971929;28;20083;-74